createdAt,value
2018-02-07T00:01:18.011Z,31.52
2018-02-07T00:03:45.599Z,30.98
2018-02-07T00:06:13.878Z,31.90
2018-02-07T00:08:42.139Z,30.35
2018-02-07T00:11:09.628Z,32.08
2018-02-07T00:13:37.110Z,33.92
2018-02-07T00:16:04.603Z,32.38
2018-02-07T00:18:32.090Z,31.95
2018-02-07T00:21:00.346Z,32.10
2018-02-07T00:23:27.828Z,32.30
2018-02-07T00:25:56.090Z,32.47
2018-02-07T00:28:24.334Z,33.15
2018-02-07T00:30:51.822Z,35.20
2018-02-07T00:33:20.075Z,36.20
2018-02-07T00:35:48.376Z,34.90
2018-02-07T00:38:16.645Z,34.05
2018-02-07T00:40:44.143Z,33.70
2018-02-07T00:43:11.626Z,32.95
2018-02-07T00:45:39.115Z,32.60
2018-02-07T00:48:06.600Z,33.75
2018-02-07T00:50:34.898Z,32.85
2018-02-07T00:53:02.387Z,31.05
2018-02-07T00:55:29.883Z,33.17
2018-02-07T00:57:58.131Z,32.35
2018-02-07T01:00:25.630Z,33.35
2018-02-07T01:02:53.878Z,33.33
2018-02-07T01:05:21.378Z,32.05
2018-02-07T01:07:48.863Z,32.58
2018-02-07T01:10:16.391Z,33.63
2018-02-07T01:12:43.934Z,32.75
2018-02-07T01:15:12.218Z,34.72
2018-02-07T01:17:39.731Z,34.47
2018-02-07T01:20:07.230Z,34.20
2018-02-07T01:22:35.810Z,34.00
2018-02-07T01:25:04.065Z,36.15
2018-02-07T01:27:31.562Z,32.05
2018-02-07T01:29:59.039Z,32.13
2018-02-07T01:32:26.536Z,33.65
2018-02-07T01:34:54.121Z,33.67
2018-02-07T01:37:22.395Z,32.75
2018-02-07T01:39:50.651Z,33.92
2018-02-07T01:42:18.149Z,35.22
2018-02-07T01:44:45.631Z,34.42
2018-02-07T01:47:13.124Z,34.28
2018-02-07T01:49:40.616Z,34.45
2018-02-07T01:52:08.868Z,32.45
2018-02-07T01:54:36.349Z,35.22
2018-02-07T01:57:04.606Z,34.05
2018-02-07T01:59:32.894Z,34.33
2018-02-07T02:02:01.163Z,35.33
2018-02-07T02:04:29.409Z,34.67
2018-02-07T02:06:57.007Z,33.85
2018-02-07T02:09:25.282Z,36.05
2018-02-07T02:11:53.544Z,35.95
2018-02-07T02:14:21.122Z,36.30
2018-02-07T02:16:48.673Z,35.30
2018-02-07T02:19:16.954Z,36.65
2018-02-07T02:21:45.211Z,36.47
2018-02-07T02:24:12.695Z,39.15
2018-02-07T02:26:40.966Z,37.83
2018-02-07T02:29:09.218Z,38.47
2018-02-07T02:31:36.806Z,39.65
2018-02-07T02:34:05.051Z,40.10
2018-02-07T02:36:39.480Z,38.50
2018-02-07T02:39:06.967Z,38.65
2018-02-07T02:41:35.227Z,37.83
2018-02-07T02:44:03.486Z,37.60
2018-02-07T02:46:31.008Z,40.12
2018-02-07T02:48:58.538Z,40.95
2018-02-07T02:51:26.043Z,40.42
2018-02-07T02:53:53.540Z,38.90
2018-02-07T02:56:21.799Z,40.42
2018-02-07T02:58:49.287Z,40.67
2018-02-07T03:01:17.570Z,39.25
2018-02-07T03:03:45.046Z,38.30
2018-02-07T03:06:12.536Z,39.88
2018-02-07T03:08:40.022Z,40.05
2018-02-07T03:11:08.296Z,39.40
2018-02-07T03:13:36.562Z,39.70
2018-02-07T03:16:04.135Z,39.03
2018-02-07T03:18:32.389Z,39.75
2018-02-07T03:20:59.975Z,41.65
2018-02-07T03:23:28.232Z,39.97
2018-02-07T03:25:55.819Z,41.65
2018-02-07T03:28:25.119Z,40.42
2018-02-07T03:30:53.391Z,39.05
2018-02-07T03:33:21.663Z,40.15
2018-02-07T03:35:49.944Z,40.97
2018-02-07T03:38:18.219Z,40.00
2018-02-07T03:40:46.495Z,41.83
2018-02-07T03:43:14.738Z,42.00
2018-02-07T03:45:42.232Z,40.78
2018-02-07T03:48:10.493Z,41.42
2018-02-07T03:50:38.022Z,42.72
2018-02-07T03:53:05.524Z,42.38
2018-02-07T03:55:33.788Z,41.37
2018-02-07T03:58:01.359Z,42.00
2018-02-07T04:00:29.638Z,41.72
2018-02-07T04:02:57.900Z,42.20
2018-02-07T04:05:25.478Z,41.45
2018-02-07T04:07:53.746Z,41.50
2018-02-07T04:10:22.028Z,42.58
2018-02-07T04:12:50.289Z,43.50
2018-02-07T04:15:17.784Z,43.75
2018-02-07T04:17:45.270Z,44.13
2018-02-07T04:20:12.775Z,44.50
2018-02-07T04:22:41.046Z,45.78
2018-02-07T04:25:09.319Z,45.03
2018-02-07T04:27:37.575Z,43.78
2018-02-07T04:30:05.067Z,43.42
2018-02-07T04:32:33.326Z,44.30
2018-02-07T04:35:00.819Z,44.20
2018-02-07T04:37:28.359Z,44.45
2018-02-07T04:39:56.612Z,45.05
2018-02-07T04:42:24.111Z,45.00
2018-02-07T04:44:51.702Z,43.53
2018-02-07T04:47:19.202Z,43.08
2018-02-07T04:49:47.482Z,45.22
2018-02-07T04:52:15.777Z,44.15
2018-02-07T04:54:43.290Z,44.80
2018-02-07T04:57:10.771Z,43.60
2018-02-07T04:59:38.300Z,43.97
2018-02-07T05:02:05.790Z,44.03
2018-02-07T05:04:34.085Z,45.83
2018-02-07T05:07:01.640Z,46.15
2018-02-07T05:09:29.903Z,44.88
2018-02-07T05:11:57.478Z,53.87
2018-02-07T05:14:25.035Z,49.33
2018-02-07T05:16:53.285Z,44.97
2018-02-07T05:19:20.782Z,44.95
2018-02-07T05:21:48.271Z,46.05
2018-02-07T05:24:15.759Z,44.90
2018-02-07T05:26:43.248Z,46.08
2018-02-07T05:29:11.489Z,46.00
2018-02-07T05:31:39.084Z,47.35
2018-02-07T05:34:07.354Z,47.33
2018-02-07T05:36:35.635Z,48.45
2018-02-07T05:39:03.888Z,47.42
2018-02-07T05:41:32.236Z,47.60
2018-02-07T05:43:59.742Z,47.83
2018-02-07T05:46:27.991Z,48.63
2018-02-07T05:48:55.577Z,47.50
2018-02-07T05:51:23.862Z,46.80
2018-02-07T05:53:52.134Z,47.97
2018-02-07T05:56:20.404Z,49.17
2018-02-07T05:58:48.657Z,48.22
2018-02-07T06:01:16.150Z,47.95
2018-02-07T06:03:44.397Z,49.05
2018-02-07T06:06:12.063Z,49.75
2018-02-07T06:08:39.514Z,48.60
2018-02-07T06:11:07.017Z,48.40
2018-02-07T06:13:35.307Z,49.17
2018-02-07T06:16:02.820Z,49.33
2018-02-07T06:18:31.096Z,50.53
2018-02-07T06:20:58.579Z,50.60
2018-02-07T06:23:26.134Z,51.97
2018-02-07T06:25:54.383Z,49.72
2018-02-07T06:28:22.000Z,49.85
2018-02-07T06:30:49.520Z,50.15
2018-02-07T06:33:17.092Z,49.38
2018-02-07T06:35:44.577Z,50.20
2018-02-07T06:38:12.082Z,48.53
2018-02-07T06:40:39.571Z,49.67
2018-02-07T06:43:07.994Z,50.40
2018-02-07T06:45:35.504Z,51.88
2018-02-07T06:48:03.030Z,49.97
2018-02-07T06:50:30.539Z,52.03
2018-02-07T06:52:58.030Z,51.92
2018-02-07T06:55:25.547Z,51.92
2018-02-07T06:57:53.033Z,51.55
2018-02-07T07:00:20.547Z,50.58
2018-02-07T07:02:48.014Z,50.58
2018-02-07T07:05:15.504Z,52.38
2018-02-07T07:07:43.012Z,50.25
2018-02-07T07:10:11.313Z,51.75
2018-02-07T07:12:38.843Z,50.22
2018-02-07T07:15:06.444Z,50.85
2018-02-07T07:17:33.966Z,52.17
2018-02-07T07:20:02.239Z,50.17
2018-02-07T07:22:30.567Z,52.62
2018-02-07T07:24:58.083Z,50.80
2018-02-07T07:27:26.351Z,51.83
2018-02-07T07:29:53.850Z,51.75
2018-02-07T07:32:21.343Z,53.20
2018-02-07T07:34:48.838Z,48.75
2018-02-07T07:37:17.087Z,49.13
2018-02-07T07:39:44.571Z,49.25
2018-02-07T07:42:12.839Z,50.50
2018-02-07T07:44:40.324Z,51.33
2018-02-07T07:47:07.815Z,52.10
2018-02-07T07:49:35.343Z,49.88
2018-02-07T07:52:02.859Z,51.88
2018-02-07T07:54:30.345Z,49.47
2018-02-07T07:56:58.634Z,50.20
2018-02-07T07:59:26.127Z,48.72
2018-02-07T08:01:53.645Z,49.55
2018-02-07T08:04:21.252Z,47.62
2018-02-07T08:06:48.854Z,47.35
2018-02-07T08:09:17.130Z,47.97
2018-02-07T08:11:45.400Z,49.92
2018-02-07T08:14:13.016Z,48.17
2018-02-07T08:16:40.503Z,48.33
2018-02-07T08:19:08.011Z,50.90
2018-02-07T08:21:35.509Z,49.72
2018-02-07T08:24:03.002Z,47.35
2018-02-07T08:26:31.258Z,48.40
2018-02-07T08:28:58.740Z,48.70
2018-02-07T08:31:27.009Z,48.85
2018-02-07T08:33:55.254Z,51.22
2018-02-07T08:36:22.782Z,48.67
2018-02-07T08:38:50.278Z,50.90
2018-02-07T08:41:17.778Z,50.28
2018-02-07T08:43:45.272Z,49.72
2018-02-07T08:46:13.739Z,48.83
2018-02-07T08:48:41.239Z,48.90
2018-02-07T08:51:08.780Z,48.13
2018-02-07T08:53:36.262Z,48.80
2018-02-07T08:56:04.539Z,50.63
2018-02-07T08:58:32.038Z,47.65
2018-02-07T09:00:59.533Z,47.97
2018-02-07T09:03:27.006Z,48.15
2018-02-07T09:05:54.509Z,48.17
2018-02-07T09:08:21.993Z,48.72
2018-02-07T09:10:49.487Z,47.53
2018-02-07T09:13:17.031Z,47.03
2018-02-07T09:15:44.509Z,46.97
2018-02-07T09:18:12.012Z,46.88
2018-02-07T09:20:39.518Z,49.63
2018-02-07T09:23:06.995Z,48.10
2018-02-07T09:25:35.256Z,48.63
2018-02-07T09:28:02.837Z,47.22
2018-02-07T09:30:31.108Z,49.17
2018-02-07T09:32:59.364Z,48.83
2018-02-07T09:35:26.843Z,49.00
2018-02-07T09:37:55.090Z,48.40
2018-02-07T09:40:22.583Z,47.15
2018-02-07T09:42:50.840Z,48.45
2018-02-07T09:45:18.425Z,46.88
2018-02-07T09:47:46.691Z,47.55
2018-02-07T09:50:14.969Z,48.47
2018-02-07T09:52:43.239Z,49.33
2018-02-07T09:55:11.494Z,48.42
2018-02-07T09:57:38.978Z,51.90
2018-02-07T10:00:07.250Z,50.17
2018-02-07T10:02:35.506Z,48.95
2018-02-07T10:05:03.010Z,49.75
2018-02-07T10:07:31.133Z,50.17
2018-02-07T10:09:58.651Z,49.55
2018-02-07T10:12:26.152Z,48.53
2018-02-07T10:14:53.635Z,50.17
2018-02-07T10:17:22.289Z,51.57
2018-02-07T10:19:49.774Z,51.73
2018-02-07T10:22:17.305Z,50.93
2018-02-07T10:24:44.798Z,46.87
2018-02-07T10:27:13.082Z,46.00
2018-02-07T10:29:41.326Z,48.53
2018-02-07T10:32:08.819Z,48.50
2018-02-07T10:34:36.325Z,48.70
2018-02-07T10:37:03.806Z,46.50
2018-02-07T10:39:31.389Z,47.80
2018-02-07T10:41:59.641Z,48.60
2018-02-07T10:44:27.212Z,48.10
2018-02-07T10:46:55.502Z,49.93
2018-02-07T10:49:23.758Z,48.33
2018-02-07T10:51:51.331Z,46.23
2018-02-07T10:54:19.599Z,48.77
2018-02-07T10:56:47.871Z,49.93
2018-02-07T10:59:16.129Z,49.40
2018-02-07T11:01:43.663Z,50.43
2018-02-07T11:04:11.179Z,49.13
2018-02-07T11:06:39.463Z,51.50
2018-02-07T11:09:06.978Z,51.80
2018-02-07T11:11:35.272Z,51.23
2018-02-07T11:14:02.763Z,51.50
2018-02-07T11:16:30.275Z,50.17
2018-02-07T11:18:57.763Z,52.43
2018-02-07T11:21:26.032Z,50.30
2018-02-07T11:23:54.299Z,51.93
2018-02-07T11:26:21.800Z,52.50
2018-02-07T11:28:49.292Z,54.67
2018-02-07T11:31:16.801Z,53.03
2018-02-07T11:33:44.289Z,54.40
2018-02-07T11:36:11.794Z,54.50
2018-02-07T11:38:39.282Z,57.00
2018-02-07T11:41:06.771Z,53.93
2018-02-07T11:43:34.296Z,53.17
2018-02-07T11:46:01.786Z,53.67
2018-02-07T11:48:29.271Z,53.27
2018-02-07T11:50:56.775Z,52.53
2018-02-07T11:53:24.292Z,50.73
2018-02-07T11:55:51.789Z,48.30
2018-02-07T11:58:19.267Z,50.27
2018-02-07T12:00:46.799Z,50.23
2018-02-07T12:03:15.087Z,48.33
2018-02-07T12:05:43.329Z,43.53
2018-02-07T12:08:10.817Z,46.27
2018-02-07T12:10:38.298Z,45.67
2018-02-07T12:13:05.782Z,42.27
2018-02-07T12:15:33.281Z,40.47
2018-02-07T12:18:01.535Z,47.77
2018-02-07T12:20:29.026Z,48.70
2018-02-07T12:22:56.531Z,42.97
2018-02-07T12:25:24.009Z,44.17
2018-02-07T12:27:51.486Z,40.93
2018-02-07T12:30:19.739Z,42.13
2018-02-07T12:32:48.981Z,40.70
2018-02-07T12:35:17.555Z,40.10
2018-02-07T12:37:45.098Z,40.07
2018-02-07T12:40:13.255Z,41.30
2018-02-07T12:42:41.593Z,43.47
2018-02-07T12:45:09.284Z,43.13
2018-02-07T12:47:37.130Z,44.30
2018-02-07T12:50:05.531Z,41.80
2018-02-07T12:52:34.459Z,40.70
2018-02-07T12:55:03.715Z,41.37
2018-02-07T12:57:32.717Z,40.90
2018-02-07T13:00:01.300Z,38.00
2018-02-07T13:02:31.922Z,38.73
2018-02-07T13:05:01.941Z,38.93
2018-02-07T13:07:30.230Z,37.63
2018-02-07T13:09:58.510Z,38.90
2018-02-07T13:12:26.021Z,38.13
2018-02-07T13:14:53.560Z,43.40
2018-02-07T13:17:21.087Z,42.03
2018-02-07T13:19:49.414Z,40.80
2018-02-07T13:22:17.939Z,39.77
2018-02-07T13:24:45.534Z,40.90
2018-02-07T13:27:13.869Z,39.93
2018-02-07T13:29:43.404Z,41.33
2018-02-07T13:32:10.968Z,40.80
2018-02-07T13:34:44.092Z,40.20
2018-02-07T13:37:13.024Z,41.57
2018-02-07T13:39:41.790Z,41.80
2018-02-07T13:42:09.903Z,43.43
2018-02-07T13:44:37.460Z,42.70
2018-02-07T13:47:05.030Z,41.37
2018-02-07T13:49:33.278Z,41.57
2018-02-07T13:52:00.776Z,40.57
2018-02-07T13:54:28.267Z,41.27
2018-02-07T13:56:55.751Z,41.50
2018-02-07T13:59:23.261Z,41.00
2018-02-07T14:01:50.766Z,42.13
2018-02-07T14:04:18.255Z,42.50
2018-02-07T14:06:46.516Z,41.70
2018-02-07T14:09:14.013Z,42.47
2018-02-07T14:11:41.490Z,43.87
2018-02-07T14:14:08.996Z,44.23
2018-02-07T14:16:36.570Z,44.07
2018-02-07T14:19:04.839Z,42.97
2018-02-07T14:21:32.344Z,42.63
2018-02-07T14:23:59.827Z,47.58
2018-02-07T14:26:27.353Z,42.57
2018-02-07T14:28:54.833Z,44.63
2018-02-07T14:31:22.313Z,44.80
2018-02-07T14:33:49.809Z,47.10
2018-02-07T14:36:18.139Z,46.37
2018-02-07T14:38:45.754Z,46.50
2018-02-07T14:41:13.234Z,46.60
2018-02-07T14:43:40.758Z,46.73
2018-02-07T14:46:09.014Z,46.40
2018-02-07T14:48:36.507Z,45.43
2018-02-07T14:51:04.020Z,46.03
2018-02-07T14:53:31.511Z,46.43
2018-02-07T14:56:00.052Z,47.30
2018-02-07T14:58:27.545Z,46.00
2018-02-07T15:00:55.880Z,46.80
2018-02-07T15:03:23.407Z,47.50
2018-02-07T15:05:50.890Z,46.93
2018-02-07T15:08:18.379Z,46.30
2018-02-07T15:10:45.874Z,46.40
2018-02-07T15:13:13.463Z,48.17
2018-02-07T15:15:40.983Z,47.30
2018-02-07T15:18:08.483Z,47.53
2018-02-07T15:20:35.994Z,47.63
2018-02-07T15:23:04.243Z,48.73
2018-02-07T15:25:31.727Z,48.97
2018-02-07T15:28:00.019Z,49.90
2018-02-07T15:30:27.606Z,50.23
2018-02-07T15:32:55.113Z,51.07
2018-02-07T15:35:23.374Z,53.95
2018-02-07T15:37:50.898Z,53.70
2018-02-07T15:40:18.454Z,53.60
2018-02-07T15:42:46.038Z,53.77
2018-02-07T15:45:13.557Z,52.03
2018-02-07T15:47:41.095Z,54.40
2018-02-07T15:50:08.607Z,55.60
2018-02-07T15:52:36.117Z,56.88
2018-02-07T15:55:03.663Z,56.23
2018-02-07T15:57:31.213Z,56.75
2018-02-07T15:59:58.734Z,54.95
2018-02-07T16:02:26.299Z,54.72
2018-02-07T16:04:53.811Z,53.95
2018-02-07T16:07:21.379Z,54.55
2018-02-07T16:09:48.935Z,53.22
2018-02-07T16:12:16.466Z,55.20
2018-02-07T16:14:44.721Z,55.08
2018-02-07T16:17:12.232Z,56.28
2018-02-07T16:19:39.725Z,55.25
2018-02-07T16:22:07.243Z,56.00
2018-02-07T16:24:35.676Z,56.45
2018-02-07T16:27:03.170Z,54.97
2018-02-07T16:29:31.447Z,55.70
2018-02-07T16:31:59.711Z,56.42
2018-02-07T16:34:27.237Z,55.40
2018-02-07T16:36:54.740Z,54.88
2018-02-07T16:39:23.064Z,54.85
2018-02-07T16:41:50.543Z,55.83
2018-02-07T16:44:18.027Z,55.92
2018-02-07T16:46:45.528Z,59.30
2018-02-07T16:49:13.026Z,55.50
2018-02-07T16:51:40.540Z,60.80
2018-02-07T16:54:08.109Z,59.03
2018-02-07T16:56:35.597Z,59.05
2018-02-07T16:59:03.092Z,59.92
2018-02-07T17:01:30.593Z,58.28
2018-02-07T17:03:58.090Z,59.20
2018-02-07T17:06:25.583Z,56.55
2018-02-07T17:08:53.106Z,62.88
2018-02-07T17:11:21.397Z,67.43
2018-02-07T17:13:49.674Z,75.35
2018-02-07T17:16:17.206Z,64.22
2018-02-07T17:18:44.737Z,65.55
2018-02-07T17:21:12.238Z,62.33
2018-02-07T17:23:40.543Z,62.35
2018-02-07T17:26:08.226Z,64.78
2018-02-07T17:28:35.799Z,66.32
2018-02-07T17:31:03.299Z,65.87
2018-02-07T17:33:30.835Z,64.55
2018-02-07T17:35:58.332Z,67.50
2018-02-07T17:38:26.596Z,67.93
2018-02-07T17:40:54.150Z,66.45
2018-02-07T17:43:21.685Z,65.28
2018-02-07T17:45:49.382Z,62.38
2018-02-07T17:48:16.875Z,58.63
2018-02-07T17:50:44.452Z,60.15
2018-02-07T17:53:11.947Z,56.92
2018-02-07T17:55:40.713Z,59.03
2018-02-07T17:58:08.218Z,57.47
2018-02-07T18:00:36.497Z,55.72
2018-02-07T18:03:04.751Z,55.60
2018-02-07T18:05:32.235Z,58.47
2018-02-07T18:07:59.723Z,57.28
2018-02-07T18:10:27.270Z,58.33
2018-02-07T18:12:54.783Z,56.35
2018-02-07T18:15:23.796Z,56.78
2018-02-07T18:17:51.351Z,57.33
2018-02-07T18:20:19.606Z,54.40
2018-02-07T18:22:47.102Z,55.33
2018-02-07T18:25:14.612Z,57.35
2018-02-07T18:27:42.104Z,57.13
2018-02-07T18:30:10.379Z,57.83
2018-02-07T18:32:38.639Z,56.58
2018-02-07T18:35:06.127Z,55.25
2018-02-07T18:37:34.402Z,57.30
2018-02-07T18:40:02.697Z,58.97
2018-02-07T18:42:30.223Z,57.10
2018-02-07T18:44:58.489Z,55.22
2018-02-07T18:47:26.762Z,56.03
2018-02-07T18:49:54.273Z,57.92
2018-02-07T18:52:21.789Z,66.00
2018-02-07T18:54:50.071Z,70.78
2018-02-07T18:57:18.338Z,58.75
2018-02-07T18:59:45.848Z,56.83
2018-02-07T19:02:13.357Z,57.80
2018-02-07T19:04:42.391Z,57.13
2018-02-07T19:07:09.904Z,55.25
2018-02-07T19:09:37.399Z,55.88
2018-02-07T19:12:04.941Z,55.97
2018-02-07T19:14:33.302Z,56.63
2018-02-07T19:17:00.839Z,57.42
2018-02-07T19:19:29.138Z,59.17
2018-02-07T19:21:58.678Z,57.05
2018-02-07T19:24:26.208Z,59.22
2018-02-07T19:26:54.412Z,57.28
2018-02-07T19:29:22.033Z,57.83
2018-02-07T19:31:49.648Z,60.10
2018-02-07T19:34:17.533Z,58.70
2018-02-07T19:36:45.020Z,59.70
2018-02-07T19:39:12.545Z,60.03
2018-02-07T19:41:40.073Z,65.85
2018-02-07T19:44:07.616Z,60.40
2018-02-07T19:46:35.882Z,61.50
2018-02-07T19:49:04.202Z,59.42
2018-02-07T19:51:31.714Z,58.83
2018-02-07T19:53:59.221Z,59.92
2018-02-07T19:56:26.775Z,59.08
2018-02-07T19:58:54.271Z,61.03
2018-02-07T20:01:21.764Z,59.55
2018-02-07T20:03:50.022Z,62.75
2018-02-07T20:06:17.559Z,61.97
2018-02-07T20:08:45.958Z,58.95
2018-02-07T20:11:13.443Z,59.88
2018-02-07T20:13:41.746Z,62.80
2018-02-07T20:16:09.243Z,58.90
2018-02-07T20:18:36.811Z,63.15
2018-02-07T20:21:05.150Z,62.72
2018-02-07T20:23:32.730Z,59.75
2018-02-07T20:26:00.236Z,63.72
2018-02-07T20:28:28.509Z,59.33
2018-02-07T20:30:56.775Z,63.38
2018-02-07T20:33:24.268Z,65.62
2018-02-07T20:35:52.106Z,64.60
2018-02-07T20:38:20.378Z,63.72
2018-02-07T20:40:48.661Z,62.92
2018-02-07T20:43:16.955Z,63.47
2018-02-07T20:45:44.435Z,61.85
2018-02-07T20:48:15.804Z,61.95
2018-02-07T20:50:43.313Z,62.62
2018-02-07T20:53:11.604Z,60.70
2018-02-07T20:55:39.121Z,62.13
2018-02-07T20:58:06.607Z,62.90
2018-02-07T21:00:34.120Z,61.95
2018-02-07T21:03:01.611Z,61.42
2018-02-07T21:05:29.880Z,63.08
2018-02-07T21:07:57.399Z,65.90
2018-02-07T21:10:24.917Z,65.65
2018-02-07T21:12:53.182Z,63.08
2018-02-07T21:15:21.442Z,63.55
2018-02-07T21:17:49.034Z,68.37
2018-02-07T21:20:16.530Z,66.47
2018-02-07T21:22:44.051Z,65.70
2018-02-07T21:25:11.544Z,66.28
2018-02-07T21:27:39.037Z,69.28
2018-02-07T21:30:06.530Z,66.78
2018-02-07T21:32:34.066Z,63.80
2018-02-07T21:35:02.365Z,64.30
2018-02-07T21:37:32.501Z,66.30
2018-02-07T21:39:59.987Z,64.45
2018-02-07T21:42:27.490Z,65.90
2018-02-07T21:44:55.758Z,64.45
2018-02-07T21:47:24.035Z,66.95
2018-02-07T21:49:52.346Z,68.22
2018-02-07T21:52:19.850Z,65.62
2018-02-07T21:54:48.184Z,67.47
2018-02-07T21:57:15.695Z,65.68
2018-02-07T21:59:43.215Z,66.97
2018-02-07T22:02:11.502Z,65.87
2018-02-07T22:04:39.027Z,69.62
2018-02-07T22:07:06.534Z,69.32
2018-02-07T22:09:34.048Z,70.03
2018-02-07T22:12:01.562Z,69.68
2018-02-07T22:14:29.060Z,71.40
2018-02-07T22:16:56.746Z,73.75
2018-02-07T22:19:24.244Z,68.57
2018-02-07T22:21:51.751Z,67.22
2018-02-07T22:24:19.359Z,67.28
2018-02-07T22:26:46.847Z,66.35
2018-02-07T22:29:15.126Z,66.07
2018-02-07T22:31:43.371Z,67.85
2018-02-07T22:34:10.881Z,69.32
2018-02-07T22:36:38.379Z,69.43
2018-02-07T22:39:05.876Z,68.93
2018-02-07T22:41:34.167Z,66.57
2018-02-07T22:44:01.666Z,64.55
2018-02-07T22:46:29.171Z,64.85
2018-02-07T22:48:56.650Z,68.57
2018-02-07T22:51:24.170Z,69.18
2018-02-07T22:53:52.481Z,67.72
2018-02-07T22:56:19.998Z,67.62
2018-02-07T22:58:47.491Z,66.57
2018-02-07T23:01:14.982Z,66.53
2018-02-07T23:03:42.555Z,68.40
2018-02-07T23:06:10.073Z,66.53
2018-02-07T23:08:37.638Z,67.18
2018-02-07T23:11:05.128Z,69.12
2018-02-07T23:13:32.627Z,65.18
2018-02-07T23:16:00.899Z,67.22
2018-02-07T23:18:28.429Z,64.30
2018-02-07T23:20:55.915Z,65.37
2018-02-07T23:23:24.227Z,66.40
2018-02-07T23:25:51.728Z,66.97
2018-02-07T23:28:19.221Z,70.10
2018-02-07T23:30:47.506Z,65.90
2018-02-07T23:33:14.998Z,66.30
2018-02-07T23:35:42.531Z,68.03
2018-02-07T23:38:10.112Z,63.85
2018-02-07T23:40:37.600Z,66.28
2018-02-07T23:43:05.123Z,63.67
2018-02-07T23:45:32.624Z,64.45
2018-02-07T23:48:00.107Z,64.70
2018-02-07T23:50:28.358Z,66.07
2018-02-07T23:52:55.937Z,65.60
2018-02-07T23:55:24.215Z,66.55
2018-02-07T23:57:52.472Z,64.45
